createdAt,value
2023-03-05T00:00:21.418Z,-1.56
2023-03-05T00:00:57.230Z,-1.56
2023-03-05T00:01:23.481Z,-1.56
2023-03-05T00:01:53.706Z,-1.56
2023-03-05T00:02:25.572Z,-1.56
2023-03-05T00:02:55.727Z,-1.56
2023-03-05T00:03:27.773Z,-1.56
2023-03-05T00:03:58.681Z,-1.56
2023-03-05T00:04:29.342Z,-1.56
2023-03-05T00:04:59.684Z,-1.56
2023-03-05T00:05:31.763Z,-1.56
2023-03-05T00:06:01.750Z,-1.56
2023-03-05T00:06:33.453Z,-1.56
2023-03-05T00:07:03.660Z,-1.56
2023-03-05T00:07:36.047Z,-1.56
2023-03-05T00:08:06.010Z,-1.56
2023-03-05T00:08:37.444Z,-1.56
2023-03-05T00:09:08.636Z,-1.56
2023-03-05T00:09:38.687Z,-1.56
2023-03-05T00:10:10.400Z,-1.56
2023-03-05T00:10:42.264Z,-1.56
2023-03-05T00:11:11.749Z,-1.56
2023-03-05T00:11:43.533Z,-1.41
2023-03-05T00:12:14.235Z,-1.41
2023-03-05T00:12:45.879Z,-1.41
2023-03-05T00:13:15.640Z,-1.41
2023-03-05T00:13:47.313Z,-1.41
2023-03-05T00:14:18.671Z,-1.41
2023-03-05T00:14:50.331Z,-1.41
2023-03-05T00:15:19.842Z,-1.41
2023-03-05T00:15:52.211Z,-1.41
2023-03-05T00:16:21.919Z,-1.41
2023-03-05T00:16:53.794Z,-1.53
2023-03-05T00:17:23.646Z,-1.53
2023-03-05T00:17:55.454Z,-1.53
2023-03-05T00:18:25.939Z,-1.53
2023-03-05T00:18:57.338Z,-1.53
2023-03-05T00:19:29.338Z,-1.53
2023-03-05T00:20:01.909Z,-1.53
2023-03-05T00:20:40.006Z,-1.53
2023-03-05T00:21:01.587Z,-1.53
2023-03-05T00:21:31.664Z,-1.53
2023-03-05T00:22:03.482Z,-1.53
2023-03-05T00:22:33.706Z,-1.53
2023-03-05T00:23:05.337Z,-1.53
2023-03-05T00:23:36.323Z,-1.53
2023-03-05T00:24:07.375Z,-1.53
2023-03-05T00:24:38.637Z,-1.53
2023-03-05T00:25:09.381Z,-1.53
2023-03-05T00:25:40.106Z,-1.53
2023-03-05T00:26:11.377Z,-1.53
2023-03-05T00:26:41.686Z,-1.53
2023-03-05T00:27:13.367Z,-1.53
2023-03-05T00:27:43.765Z,-1.53
2023-03-05T00:28:15.326Z,-1.53
2023-03-05T00:28:46.044Z,-1.53
2023-03-05T00:29:17.383Z,-1.53
2023-03-05T00:29:48.635Z,-1.53
2023-03-05T00:30:20.846Z,-1.53
2023-03-05T00:30:49.741Z,-1.53
2023-03-05T00:31:21.557Z,-1.53
2023-03-05T00:31:51.647Z,-1.53
2023-03-05T00:32:23.433Z,-1.53
2023-03-05T00:32:53.744Z,-1.53
2023-03-05T00:33:25.568Z,-1.53
2023-03-05T00:33:55.687Z,-1.53
2023-03-05T00:34:27.328Z,-1.39
2023-03-05T00:34:58.657Z,-1.39
2023-03-05T00:35:29.948Z,-1.39
2023-03-05T00:35:59.730Z,-1.53
2023-03-05T00:36:31.378Z,-1.53
2023-03-05T00:37:02.346Z,-1.53
2023-03-05T00:37:33.362Z,-1.53
2023-03-05T00:38:03.666Z,-1.53
2023-03-05T00:38:35.548Z,-1.53
2023-03-05T00:39:05.969Z,-1.53
2023-03-05T00:39:37.464Z,-1.53
2023-03-05T00:40:09.120Z,-1.53
2023-03-05T00:40:40.725Z,-1.53
2023-03-05T00:41:10.027Z,-1.53
2023-03-05T00:41:41.447Z,-1.53
2023-03-05T00:42:11.633Z,-1.53
2023-03-05T00:42:43.372Z,-1.53
2023-03-05T00:43:13.634Z,-1.53
2023-03-05T00:43:46.065Z,-1.53
2023-03-05T00:44:15.673Z,-1.53
2023-03-05T00:44:47.375Z,-1.53
2023-03-05T00:45:19.619Z,-1.53
2023-03-05T00:45:49.409Z,-1.53
2023-03-05T00:46:19.886Z,-1.53
2023-03-05T00:46:51.538Z,-1.53
2023-03-05T00:47:21.970Z,-1.53
2023-03-05T00:47:53.341Z,-1.53
2023-03-05T00:48:23.647Z,-1.53
2023-03-05T00:48:55.616Z,-1.53
2023-03-05T00:49:25.948Z,-1.53
2023-03-05T00:49:57.311Z,-1.53
2023-03-05T00:50:29.351Z,-1.53
2023-03-05T00:50:59.318Z,-1.53
2023-03-05T00:51:29.604Z,-1.53
2023-03-05T00:52:01.678Z,-1.53
2023-03-05T00:52:31.631Z,-1.53
2023-03-05T00:53:03.415Z,-1.53
2023-03-05T00:53:33.665Z,-1.53
2023-03-05T00:54:05.380Z,-1.53
2023-03-05T00:54:36.372Z,-1.53
2023-03-05T00:55:07.768Z,-1.53
2023-03-05T00:55:38.783Z,-1.53
2023-03-05T00:56:09.377Z,-1.53
2023-03-05T00:56:39.646Z,-1.53
2023-03-05T00:57:11.925Z,-1.53
2023-03-05T00:57:41.679Z,-1.53
2023-03-05T00:58:13.348Z,-1.53
2023-03-05T00:58:43.643Z,-1.53
2023-03-05T00:59:15.345Z,-1.53
2023-03-05T00:59:45.992Z,-1.53
2023-03-05T01:00:18.808Z,-1.53
2023-03-05T01:00:50.343Z,-1.53
2023-03-05T01:01:19.370Z,-1.53
2023-03-05T01:01:49.600Z,-1.53
2023-03-05T01:02:21.416Z,-1.53
2023-03-05T01:02:51.702Z,-1.53
2023-03-05T01:03:23.339Z,-1.53
2023-03-05T01:03:54.336Z,-1.53
2023-03-05T01:04:25.483Z,-1.53
2023-03-05T01:04:55.810Z,-1.53
2023-03-05T01:05:28.101Z,-1.53
2023-03-05T01:05:58.611Z,-1.53
2023-03-05T01:06:29.567Z,-1.53
2023-03-05T01:06:59.668Z,-1.53
2023-03-05T01:07:31.338Z,-1.53
2023-03-05T01:08:02.193Z,-1.53
2023-03-05T01:08:33.326Z,-1.53
2023-03-05T01:09:03.672Z,-1.53
2023-03-05T01:09:41.942Z,-1.53
2023-03-05T01:10:07.049Z,-1.53
2023-03-05T01:10:37.909Z,-1.68
2023-03-05T01:11:08.651Z,-1.68
2023-03-05T01:11:39.308Z,-1.68
2023-03-05T01:12:09.625Z,-1.68
2023-03-05T01:12:41.302Z,-1.68
2023-03-05T01:13:11.703Z,-1.68
2023-03-05T01:13:43.378Z,-1.68
2023-03-05T01:14:13.638Z,-1.68
2023-03-05T01:14:45.310Z,-1.68
2023-03-05T01:15:16.452Z,-1.68
2023-03-05T01:15:47.399Z,-1.68
2023-03-05T01:16:18.815Z,-1.68
2023-03-05T01:16:49.337Z,-1.68
2023-03-05T01:17:20.448Z,-1.68
2023-03-05T01:17:51.365Z,-1.68
2023-03-05T01:18:21.644Z,-1.68
2023-03-05T01:18:53.326Z,-1.68
2023-03-05T01:19:23.597Z,-1.56
2023-03-05T01:19:56.321Z,-1.56
2023-03-05T01:20:29.668Z,-1.56
2023-03-05T01:20:57.351Z,-1.56
2023-03-05T01:21:28.577Z,-1.56
2023-03-05T01:21:59.313Z,-1.68
2023-03-05T01:22:29.629Z,-1.68
2023-03-05T01:23:01.556Z,-1.68
2023-03-05T01:23:31.605Z,-1.68
2023-03-05T01:24:04.107Z,-1.68
2023-03-05T01:24:33.618Z,-1.68
2023-03-05T01:25:06.524Z,-1.83
2023-03-05T01:25:35.708Z,-1.83
2023-03-05T01:26:07.285Z,-1.83
2023-03-05T01:26:38.623Z,-1.83
2023-03-05T01:27:09.317Z,-1.83
2023-03-05T01:27:39.608Z,-1.71
2023-03-05T01:28:11.310Z,-1.71
2023-03-05T01:28:41.596Z,-1.71
2023-03-05T01:29:13.269Z,-1.71
2023-03-05T01:29:43.596Z,-1.71
2023-03-05T01:30:16.117Z,-1.71
2023-03-05T01:30:46.421Z,-1.71
2023-03-05T01:31:17.370Z,-1.71
2023-03-05T01:31:48.673Z,-1.71
2023-03-05T01:32:19.331Z,-1.71
2023-03-05T01:32:49.704Z,-1.71
2023-03-05T01:33:21.333Z,-1.71
2023-03-05T01:33:51.617Z,-1.71
2023-03-05T01:34:23.366Z,-1.71
2023-03-05T01:34:53.768Z,-1.71
2023-03-05T01:35:26.152Z,-1.71
2023-03-05T01:35:55.846Z,-1.71
2023-03-05T01:36:27.289Z,-1.71
2023-03-05T01:36:59.030Z,-1.71
2023-03-05T01:37:29.760Z,-1.71
2023-03-05T01:37:59.662Z,-1.71
2023-03-05T01:38:31.332Z,-1.71
2023-03-05T01:39:01.737Z,-1.71
2023-03-05T01:39:33.399Z,-1.71
2023-03-05T01:40:03.957Z,-1.85
2023-03-05T01:40:38.095Z,-1.85
2023-03-05T01:41:05.870Z,-1.85
2023-03-05T01:41:37.317Z,-1.85
2023-03-05T01:42:08.580Z,-1.85
2023-03-05T01:42:39.489Z,-1.85
2023-03-05T01:43:09.619Z,-1.85
2023-03-05T01:43:41.290Z,-1.85
2023-03-05T01:44:11.635Z,-1.85
2023-03-05T01:44:43.317Z,-1.85
2023-03-05T01:45:14.637Z,-1.85
2023-03-05T01:45:45.382Z,-1.85
2023-03-05T01:46:15.706Z,-1.85
2023-03-05T01:46:47.298Z,-1.85
2023-03-05T01:47:18.791Z,-1.74
2023-03-05T01:47:49.305Z,-1.74
2023-03-05T01:48:19.876Z,-1.74
2023-03-05T01:48:51.321Z,-1.85
2023-03-05T01:49:21.605Z,-1.74
2023-03-05T01:49:53.348Z,-1.74
2023-03-05T01:50:24.123Z,-1.85
2023-03-05T01:50:56.278Z,-1.99
2023-03-05T01:51:25.903Z,-1.99
2023-03-05T01:51:57.279Z,-1.99
2023-03-05T01:52:28.583Z,-1.99
2023-03-05T01:52:59.293Z,-1.99
2023-03-05T01:53:29.692Z,-1.99
2023-03-05T01:54:01.415Z,-1.99
2023-03-05T01:54:31.640Z,-1.88
2023-03-05T01:55:03.810Z,-1.88
2023-03-05T01:55:33.782Z,-1.88
2023-03-05T01:56:05.359Z,-1.88
2023-03-05T01:56:35.589Z,-1.88
2023-03-05T01:57:07.360Z,-1.88
2023-03-05T01:57:38.796Z,-1.88
2023-03-05T01:58:09.318Z,-1.88
2023-03-05T01:58:39.687Z,-1.88
2023-03-05T01:59:11.249Z,-1.88
2023-03-05T01:59:41.580Z,-1.88
2023-03-05T02:00:15.848Z,-1.88
2023-03-05T02:00:51.331Z,-1.88
2023-03-05T02:01:15.328Z,-1.88
2023-03-05T02:01:45.929Z,-1.88
2023-03-05T02:02:17.398Z,-1.88
2023-03-05T02:02:48.582Z,-1.88
2023-03-05T02:03:19.287Z,-1.88
2023-03-05T02:03:49.651Z,-1.88
2023-03-05T02:04:21.894Z,-2.04
2023-03-05T02:04:51.704Z,-1.88
2023-03-05T02:05:23.765Z,-1.88
2023-03-05T02:05:53.594Z,-1.88
2023-03-05T02:06:25.445Z,-1.88
2023-03-05T02:06:55.639Z,-1.88
2023-03-05T02:07:27.370Z,-1.88
2023-03-05T02:07:58.570Z,-1.88
2023-03-05T02:08:29.292Z,-1.88
2023-03-05T02:08:59.554Z,-1.88
2023-03-05T02:09:31.270Z,-1.88
2023-03-05T02:10:01.732Z,-1.88
2023-03-05T02:10:33.043Z,-1.88
2023-03-05T02:11:05.143Z,-1.88
2023-03-05T02:11:34.823Z,-1.88
2023-03-05T02:12:06.575Z,-1.88
2023-03-05T02:12:36.587Z,-1.88
2023-03-05T02:13:09.284Z,-1.88
2023-03-05T02:13:38.578Z,-1.88
2023-03-05T02:14:10.452Z,-1.88
2023-03-05T02:14:40.580Z,-1.88
2023-03-05T02:15:13.180Z,-1.88
2023-03-05T02:15:42.621Z,-1.88
2023-03-05T02:16:14.610Z,-1.88
2023-03-05T02:16:44.804Z,-1.88
2023-03-05T02:17:16.332Z,-1.88
2023-03-05T02:17:46.558Z,-1.88
2023-03-05T02:18:19.360Z,-1.88
2023-03-05T02:18:48.570Z,-1.88
2023-03-05T02:19:20.326Z,-1.83
2023-03-05T02:19:50.571Z,-1.83
2023-03-05T02:20:23.308Z,-1.88
2023-03-05T02:20:52.601Z,-1.88
2023-03-05T02:21:24.302Z,-1.88
2023-03-05T02:21:54.932Z,-1.88
2023-03-05T02:22:26.878Z,-1.88
2023-03-05T02:22:56.792Z,-1.88
2023-03-05T02:23:29.341Z,-1.88
2023-03-05T02:23:58.600Z,-1.88
2023-03-05T02:24:30.785Z,-1.88
2023-03-05T02:25:01.036Z,-1.88
2023-03-05T02:25:32.750Z,-1.88
2023-03-05T02:26:02.803Z,-1.88
2023-03-05T02:26:34.341Z,-1.88
2023-03-05T02:27:04.940Z,-1.88
2023-03-05T02:27:36.316Z,-1.88
2023-03-05T02:28:06.650Z,-2.04
2023-03-05T02:28:39.404Z,-2.04
2023-03-05T02:29:08.591Z,-2.04
2023-03-05T02:29:40.282Z,-2.04
2023-03-05T02:30:11.365Z,-1.88
2023-03-05T02:30:42.344Z,-2.04
2023-03-05T02:31:12.581Z,-1.88
2023-03-05T02:31:44.361Z,-1.88
2023-03-05T02:32:14.781Z,-1.88
2023-03-05T02:32:46.597Z,-1.88
2023-03-05T02:33:16.693Z,-1.88
2023-03-05T02:33:49.825Z,-1.83
2023-03-05T02:34:18.669Z,-1.83
2023-03-05T02:34:50.263Z,-1.83
2023-03-05T02:35:21.454Z,-1.83
2023-03-05T02:35:52.356Z,-1.83
2023-03-05T02:36:22.608Z,-1.88
2023-03-05T02:36:54.300Z,-1.88
2023-03-05T02:37:24.611Z,-1.88
2023-03-05T02:37:56.800Z,-1.88
2023-03-05T02:38:26.610Z,-1.88
2023-03-05T02:38:59.276Z,-1.88
2023-03-05T02:39:28.562Z,-1.88
2023-03-05T02:40:00.374Z,-1.88
2023-03-05T02:40:38.288Z,-1.83
2023-03-05T02:41:02.310Z,-1.83
2023-03-05T02:41:32.607Z,-1.88
2023-03-05T02:42:04.348Z,-1.88
2023-03-05T02:42:35.133Z,-1.88
2023-03-05T02:43:06.580Z,-1.88
2023-03-05T02:43:37.030Z,-1.88
2023-03-05T02:44:09.314Z,-1.88
2023-03-05T02:44:38.570Z,-1.88
2023-03-05T02:45:11.192Z,-1.88
2023-03-05T02:45:40.676Z,-2.04
2023-03-05T02:46:12.449Z,-1.88
2023-03-05T02:46:42.611Z,-1.88
2023-03-05T02:47:14.293Z,-2.04
2023-03-05T02:47:44.596Z,-2.04
2023-03-05T02:48:16.271Z,-2.04
2023-03-05T02:48:47.040Z,-2.04
2023-03-05T02:49:19.250Z,-2.04
2023-03-05T02:49:48.575Z,-1.83
2023-03-05T02:50:20.785Z,-1.99
2023-03-05T02:50:50.593Z,-1.83
2023-03-05T02:51:22.840Z,-1.99
2023-03-05T02:51:52.642Z,-1.83
2023-03-05T02:52:24.465Z,-1.83
2023-03-05T02:52:54.590Z,-1.83
2023-03-05T02:53:26.560Z,-1.83
2023-03-05T02:53:56.585Z,-1.83
2023-03-05T02:54:29.302Z,-1.83
2023-03-05T02:54:58.581Z,-1.83
2023-03-05T02:55:30.758Z,-1.83
2023-03-05T02:56:00.874Z,-1.83
2023-03-05T02:56:32.293Z,-1.83
2023-03-05T02:57:02.739Z,-1.83
2023-03-05T02:57:34.302Z,-1.83
2023-03-05T02:58:04.829Z,-1.83
2023-03-05T02:58:36.346Z,-1.83
2023-03-05T02:59:06.570Z,-1.83
2023-03-05T02:59:39.300Z,-1.83
2023-03-05T03:00:10.169Z,-1.83
2023-03-05T03:00:53.666Z,-1.83
2023-03-05T03:01:10.747Z,-1.83
2023-03-05T03:01:42.534Z,-1.83
2023-03-05T03:02:13.493Z,-1.83
2023-03-05T03:02:44.349Z,-1.83
2023-03-05T03:03:14.683Z,-1.83
2023-03-05T03:03:46.614Z,-1.88
2023-03-05T03:04:16.870Z,-1.88
2023-03-05T03:04:49.744Z,-1.88
2023-03-05T03:05:18.994Z,-1.88
2023-03-05T03:05:50.706Z,-1.88
2023-03-05T03:06:20.654Z,-1.88
2023-03-05T03:06:52.385Z,-1.88
2023-03-05T03:07:22.940Z,-1.88
2023-03-05T03:07:54.300Z,-1.88
2023-03-05T03:08:24.619Z,-1.88
2023-03-05T03:08:56.467Z,-1.88
2023-03-05T03:09:26.581Z,-1.88
2023-03-05T03:09:58.635Z,-1.88
2023-03-05T03:10:29.134Z,-1.74
2023-03-05T03:11:00.280Z,-1.74
2023-03-05T03:11:30.618Z,-1.74
2023-03-05T03:12:02.280Z,-1.74
2023-03-05T03:12:32.559Z,-1.74
2023-03-05T03:13:04.445Z,-1.74
2023-03-05T03:13:34.653Z,-1.74
2023-03-05T03:14:06.573Z,-1.74
2023-03-05T03:14:36.644Z,-1.74
2023-03-05T03:15:10.521Z,-1.74
2023-03-05T03:15:39.168Z,-1.74
2023-03-05T03:16:10.431Z,-1.74
2023-03-05T03:16:40.630Z,-1.74
2023-03-05T03:17:12.295Z,-1.74
2023-03-05T03:17:42.560Z,-1.60
2023-03-05T03:18:14.761Z,-1.60
2023-03-05T03:18:44.609Z,-1.60
2023-03-05T03:19:17.364Z,-1.60
2023-03-05T03:19:46.584Z,-1.60
2023-03-05T03:20:19.732Z,-1.60
2023-03-05T03:20:48.559Z,-1.60
2023-03-05T03:21:20.319Z,-1.60
2023-03-05T03:21:50.597Z,-1.60
2023-03-05T03:22:22.253Z,-1.60
2023-03-05T03:22:52.569Z,-1.71
2023-03-05T03:23:25.498Z,-1.71
2023-03-05T03:23:55.131Z,-1.71
2023-03-05T03:24:26.689Z,-1.56
2023-03-05T03:24:56.679Z,-1.71
2023-03-05T03:25:29.752Z,-1.71
2023-03-05T03:25:58.604Z,-1.56
2023-03-05T03:26:30.318Z,-1.56
2023-03-05T03:27:00.993Z,-1.56
2023-03-05T03:27:32.297Z,-1.71
2023-03-05T03:28:02.649Z,-1.71
2023-03-05T03:28:34.288Z,-1.71
2023-03-05T03:29:05.346Z,-1.71
2023-03-05T03:29:36.309Z,-1.71
2023-03-05T03:30:07.633Z,-1.56
2023-03-05T03:30:39.400Z,-1.56
2023-03-05T03:31:08.645Z,-1.56
2023-03-05T03:31:40.907Z,-1.56
2023-03-05T03:32:10.678Z,-1.56
2023-03-05T03:32:42.269Z,-1.56
2023-03-05T03:33:12.611Z,-1.56
2023-03-05T03:33:44.337Z,-1.56
2023-03-05T03:34:14.628Z,-1.56
2023-03-05T03:34:46.880Z,-1.56
2023-03-05T03:35:17.254Z,-1.56
2023-03-05T03:35:49.299Z,-1.71
2023-03-05T03:36:18.638Z,-1.71
2023-03-05T03:36:50.331Z,-1.71
2023-03-05T03:37:20.617Z,-1.56
2023-03-05T03:37:52.333Z,-1.71
2023-03-05T03:38:22.662Z,-1.71
2023-03-05T03:38:54.318Z,-1.56
2023-03-05T03:39:24.872Z,-1.56
2023-03-05T03:39:56.391Z,-1.56
2023-03-05T03:40:28.337Z,-1.56
2023-03-05T03:40:59.714Z,-1.56
2023-03-05T03:41:28.654Z,-1.56
2023-03-05T03:42:00.280Z,-1.56
2023-03-05T03:42:31.233Z,-1.56
2023-03-05T03:43:02.311Z,-1.56
2023-03-05T03:43:32.608Z,-1.56
2023-03-05T03:44:04.292Z,-1.56
2023-03-05T03:44:34.840Z,-1.56
2023-03-05T03:45:07.951Z,-1.56
2023-03-05T03:45:36.636Z,-1.56
2023-03-05T03:46:09.431Z,-1.56
2023-03-05T03:46:38.591Z,-1.56
2023-03-05T03:47:10.282Z,-1.56
2023-03-05T03:47:40.571Z,-1.56
2023-03-05T03:48:12.279Z,-1.56
2023-03-05T03:48:42.573Z,-1.56
2023-03-05T03:49:14.260Z,-1.56
2023-03-05T03:49:44.592Z,-1.56
2023-03-05T03:50:16.709Z,-1.56
2023-03-05T03:50:46.654Z,-1.56
2023-03-05T03:51:19.314Z,-1.56
2023-03-05T03:51:48.636Z,-1.56
2023-03-05T03:52:20.330Z,-1.56
2023-03-05T03:52:50.587Z,-1.56
2023-03-05T03:53:22.300Z,-1.56
2023-03-05T03:53:52.605Z,-1.56
2023-03-05T03:54:24.317Z,-1.56
2023-03-05T03:54:54.583Z,-1.56
2023-03-05T03:55:27.144Z,-1.56
2023-03-05T03:55:57.215Z,-1.56
2023-03-05T03:56:29.332Z,-1.56
2023-03-05T03:56:58.562Z,-1.56
2023-03-05T03:57:30.273Z,-1.56
2023-03-05T03:58:00.766Z,-1.56
2023-03-05T03:58:32.764Z,-1.56
2023-03-05T03:59:02.707Z,-1.56
2023-03-05T03:59:34.368Z,-1.56
2023-03-05T04:00:06.429Z,-1.56
2023-03-05T04:00:38.321Z,-1.56
2023-03-05T04:01:06.682Z,-1.56
2023-03-05T04:01:39.473Z,-1.56
2023-03-05T04:02:08.663Z,-1.56
2023-03-05T04:02:40.378Z,-1.56
2023-03-05T04:03:10.808Z,-1.56
2023-03-05T04:03:42.440Z,-1.56
2023-03-05T04:04:12.914Z,-1.56
2023-03-05T04:04:44.400Z,-1.56
2023-03-05T04:05:15.916Z,-1.56
2023-03-05T04:05:46.779Z,-1.56
2023-03-05T04:06:16.653Z,-1.56
2023-03-05T04:06:49.350Z,-1.56
2023-03-05T04:07:18.631Z,-1.56
2023-03-05T04:07:50.344Z,-1.56
2023-03-05T04:08:20.654Z,-1.56
2023-03-05T04:08:52.428Z,-1.56
2023-03-05T04:09:23.120Z,-1.56
2023-03-05T04:09:53.698Z,-1.56
2023-03-05T04:10:25.135Z,-1.56
2023-03-05T04:10:56.376Z,-1.56
2023-03-05T04:11:26.629Z,-1.56
2023-03-05T04:11:59.417Z,-1.56
2023-03-05T04:12:28.665Z,-1.56
2023-03-05T04:13:00.358Z,-1.56
2023-03-05T04:13:30.672Z,-1.56
2023-03-05T04:14:02.410Z,-1.56
2023-03-05T04:14:32.657Z,-1.56
2023-03-05T04:15:04.397Z,-1.56
2023-03-05T04:15:35.674Z,-1.56
2023-03-05T04:16:06.735Z,-1.56
2023-03-05T04:16:36.614Z,-1.56
2023-03-05T04:17:09.261Z,-1.56
2023-03-05T04:17:38.611Z,-1.56
2023-03-05T04:18:10.288Z,-1.56
2023-03-05T04:18:40.760Z,-1.56
2023-03-05T04:19:12.469Z,-1.56
2023-03-05T04:19:42.611Z,-1.56
2023-03-05T04:20:14.848Z,-1.56
2023-03-05T04:20:47.895Z,-1.56
2023-03-05T04:21:16.378Z,-1.56
2023-03-05T04:21:46.746Z,-1.56
2023-03-05T04:22:19.343Z,-1.56
2023-03-05T04:22:49.214Z,-1.56
2023-03-05T04:23:20.311Z,-1.56
2023-03-05T04:23:50.612Z,-1.56
2023-03-05T04:24:22.424Z,-1.56
2023-03-05T04:24:52.634Z,-1.56
2023-03-05T04:25:25.485Z,-1.56
2023-03-05T04:25:55.025Z,-1.56
2023-03-05T04:26:27.463Z,-1.56
2023-03-05T04:26:56.699Z,-1.56
2023-03-05T04:27:29.275Z,-1.56
2023-03-05T04:27:58.634Z,-1.56
2023-03-05T04:28:30.256Z,-1.56
2023-03-05T04:29:00.713Z,-1.56
2023-03-05T04:29:32.406Z,-1.56
2023-03-05T04:30:02.912Z,-1.56
2023-03-05T04:30:35.362Z,-1.56
2023-03-05T04:31:04.771Z,-1.56
2023-03-05T04:31:36.798Z,-1.56
2023-03-05T04:32:06.613Z,-1.56
2023-03-05T04:32:39.414Z,-1.56
2023-03-05T04:33:08.551Z,-1.56
2023-03-05T04:33:40.321Z,-1.56
2023-03-05T04:34:10.655Z,-1.56
2023-03-05T04:34:42.293Z,-1.56
2023-03-05T04:35:12.936Z,-1.56
2023-03-05T04:35:44.320Z,-1.56
2023-03-05T04:36:15.172Z,-1.56
2023-03-05T04:36:46.610Z,-1.56
2023-03-05T04:37:16.607Z,-1.56
2023-03-05T04:37:49.249Z,-1.56
2023-03-05T04:38:18.535Z,-1.56
2023-03-05T04:38:50.809Z,-1.56
2023-03-05T04:39:20.591Z,-1.56
2023-03-05T04:39:52.260Z,-1.56
2023-03-05T04:40:23.005Z,-1.56
2023-03-05T04:40:55.365Z,-1.56
2023-03-05T04:41:24.547Z,-1.56
2023-03-05T04:41:56.302Z,-1.56
2023-03-05T04:42:26.816Z,-1.56
2023-03-05T04:42:59.557Z,-1.56
2023-03-05T04:43:28.574Z,-1.56
2023-03-05T04:44:00.227Z,-1.56
2023-03-05T04:44:30.555Z,-1.56
2023-03-05T04:45:02.407Z,-1.56
2023-03-05T04:45:33.838Z,-1.56
2023-03-05T04:46:04.404Z,-1.56
2023-03-05T04:46:34.630Z,-1.56
2023-03-05T04:47:06.614Z,-1.56
2023-03-05T04:47:36.554Z,-1.56
2023-03-05T04:48:09.833Z,-1.56
2023-03-05T04:48:38.594Z,-1.56
2023-03-05T04:49:10.285Z,-1.56
2023-03-05T04:49:41.000Z,-1.56
2023-03-05T04:50:12.693Z,-1.56
2023-03-05T04:50:42.580Z,-1.71
2023-03-05T04:51:14.251Z,-1.71
2023-03-05T04:51:44.586Z,-1.60
2023-03-05T04:52:16.894Z,-1.60
2023-03-05T04:52:46.532Z,-1.60
2023-03-05T04:53:19.240Z,-1.45
2023-03-05T04:53:48.538Z,-1.45
2023-03-05T04:54:20.262Z,-1.60
2023-03-05T04:54:50.559Z,-1.60
2023-03-05T04:55:23.060Z,-1.60
2023-03-05T04:55:52.658Z,-1.60
2023-03-05T04:56:24.403Z,-1.60
2023-03-05T04:56:54.557Z,-1.60
2023-03-05T04:57:26.563Z,-1.60
2023-03-05T04:57:56.562Z,-1.60
2023-03-05T04:58:29.232Z,-1.60
2023-03-05T04:58:58.671Z,-1.60
2023-03-05T04:59:30.248Z,-1.60
2023-03-05T05:00:01.715Z,-1.60
2023-03-05T05:00:33.251Z,-1.60
2023-03-05T05:01:02.745Z,-1.60
2023-03-05T05:01:34.807Z,-1.60
2023-03-05T05:02:04.662Z,-1.60
2023-03-05T05:02:36.301Z,-1.60
2023-03-05T05:03:08.061Z,-1.60
2023-03-05T05:03:39.320Z,-1.60
2023-03-05T05:04:08.592Z,-1.60
2023-03-05T05:04:40.434Z,-1.60
2023-03-05T05:05:11.094Z,-1.60
2023-03-05T05:05:43.071Z,-1.60
2023-03-05T05:06:12.569Z,-1.60
2023-03-05T05:06:44.287Z,-1.60
2023-03-05T05:07:14.773Z,-1.60
2023-03-05T05:07:47.050Z,-1.60
2023-03-05T05:08:16.557Z,-1.60
2023-03-05T05:08:49.239Z,-1.60
2023-03-05T05:09:18.549Z,-1.60
2023-03-05T05:09:50.003Z,-1.60
2023-03-05T05:10:21.001Z,-1.60
2023-03-05T05:10:52.295Z,-1.60
2023-03-05T05:11:22.604Z,-1.60
2023-03-05T05:11:54.230Z,-1.60
2023-03-05T05:12:24.521Z,-1.60
2023-03-05T05:12:56.253Z,-1.60
2023-03-05T05:13:26.550Z,-1.60
2023-03-05T05:13:59.270Z,-1.55
2023-03-05T05:14:28.533Z,-1.55
2023-03-05T05:15:00.352Z,-1.55
2023-03-05T05:15:31.328Z,-1.55
2023-03-05T05:16:02.423Z,-1.55
2023-03-05T05:16:33.172Z,-1.55
2023-03-05T05:17:04.287Z,-1.55
2023-03-05T05:17:34.554Z,-1.55
2023-03-05T05:18:07.477Z,-1.55
2023-03-05T05:18:36.809Z,-1.55
2023-03-05T05:19:09.540Z,-1.55
2023-03-05T05:19:38.597Z,-1.55
2023-03-05T05:20:10.720Z,-1.55
2023-03-05T05:20:40.820Z,-1.55
2023-03-05T05:21:12.283Z,-1.55
2023-03-05T05:21:42.560Z,-1.69
2023-03-05T05:22:14.347Z,-1.69
2023-03-05T05:22:44.518Z,-1.69
2023-03-05T05:23:16.544Z,-1.69
2023-03-05T05:23:46.571Z,-1.69
2023-03-05T05:24:20.103Z,-1.69
2023-03-05T05:24:48.572Z,-1.69
2023-03-05T05:25:20.098Z,-1.69
2023-03-05T05:25:51.261Z,-1.69
2023-03-05T05:26:21.556Z,-1.69
2023-03-05T05:26:53.305Z,-1.69
2023-03-05T05:27:23.581Z,-1.69
2023-03-05T05:27:55.585Z,-1.69
2023-03-05T05:28:25.903Z,-1.58
2023-03-05T05:29:00.258Z,-1.58
2023-03-05T05:29:28.561Z,-1.58
2023-03-05T05:29:59.002Z,-1.58
2023-03-05T05:30:32.194Z,-1.44
2023-03-05T05:31:00.719Z,-1.44
2023-03-05T05:31:32.369Z,-1.58
2023-03-05T05:32:02.691Z,-1.69
2023-03-05T05:32:34.880Z,-1.69
2023-03-05T05:33:04.597Z,-1.69
2023-03-05T05:33:36.282Z,-1.69
2023-03-05T05:34:06.559Z,-1.69
2023-03-05T05:34:39.255Z,-1.58
2023-03-05T05:35:08.996Z,-1.58
2023-03-05T05:35:40.317Z,-1.58
2023-03-05T05:36:10.576Z,-1.58
2023-03-05T05:36:42.573Z,-1.58
2023-03-05T05:37:12.556Z,-1.58
2023-03-05T05:37:45.035Z,-1.58
2023-03-05T05:38:14.542Z,-1.58
2023-03-05T05:38:46.592Z,-1.58
2023-03-05T05:39:17.737Z,-1.58
2023-03-05T05:39:49.250Z,-1.58
2023-03-05T05:40:19.029Z,-1.58
2023-03-05T05:40:51.137Z,-1.58
2023-03-05T05:41:20.599Z,-1.58
2023-03-05T05:41:52.270Z,-1.58
2023-03-05T05:42:22.640Z,-1.58
2023-03-05T05:42:54.260Z,-1.58
2023-03-05T05:43:25.259Z,-1.58
2023-03-05T05:43:56.502Z,-1.58
2023-03-05T05:44:26.542Z,-1.58
2023-03-05T05:44:59.248Z,-1.47
2023-03-05T05:45:29.785Z,-1.47
2023-03-05T05:46:02.274Z,-1.47
2023-03-05T05:46:30.675Z,-1.47
2023-03-05T05:47:02.257Z,-1.47
2023-03-05T05:47:32.643Z,-1.47
2023-03-05T05:48:04.285Z,-1.47
2023-03-05T05:48:34.610Z,-1.47
2023-03-05T05:49:06.575Z,-1.47
2023-03-05T05:49:36.694Z,-1.47
2023-03-05T05:50:09.656Z,-1.47
2023-03-05T05:50:38.535Z,-1.47
2023-03-05T05:51:11.440Z,-1.47
2023-03-05T05:51:41.154Z,-1.47
2023-03-05T05:52:12.432Z,-1.47
2023-03-05T05:52:42.678Z,-1.47
2023-03-05T05:53:14.297Z,-1.47
2023-03-05T05:53:44.538Z,-1.47
2023-03-05T05:54:16.411Z,-1.47
2023-03-05T05:54:46.946Z,-1.47
2023-03-05T05:55:20.721Z,-1.47
2023-03-05T05:55:48.748Z,-1.47
2023-03-05T05:56:20.464Z,-1.47
2023-03-05T05:56:51.279Z,-1.47
2023-03-05T05:57:22.469Z,-1.47
2023-03-05T05:57:52.709Z,-1.47
2023-03-05T05:58:24.419Z,-1.47
2023-03-05T05:58:55.367Z,-1.47
2023-03-05T05:59:27.405Z,-1.35
2023-03-05T05:59:56.724Z,-1.35
2023-03-05T06:00:30.754Z,-1.35
2023-03-05T06:00:58.820Z,-1.35
2023-03-05T06:01:30.489Z,-1.35
2023-03-05T06:02:00.892Z,-1.35
2023-03-05T06:02:32.459Z,-1.35
2023-03-05T06:03:02.897Z,-1.35
2023-03-05T06:03:34.744Z,-1.35
2023-03-05T06:04:04.737Z,-1.35
2023-03-05T06:04:36.431Z,-1.35
2023-03-05T06:05:07.406Z,-1.35
2023-03-05T06:05:39.611Z,-1.35
2023-03-05T06:06:08.737Z,-1.35
2023-03-05T06:06:40.552Z,-1.47
2023-03-05T06:07:10.727Z,-1.47
2023-03-05T06:07:42.388Z,-1.47
2023-03-05T06:08:12.771Z,-1.47
2023-03-05T06:08:44.413Z,-1.35
2023-03-05T06:09:14.737Z,-1.35
2023-03-05T06:09:46.711Z,-1.35
2023-03-05T06:10:17.649Z,-1.35
2023-03-05T06:10:48.919Z,-1.35
2023-03-05T06:11:19.658Z,-1.35
2023-03-05T06:11:49.746Z,-1.35
2023-03-05T06:12:21.456Z,-1.35
2023-03-05T06:12:51.731Z,-1.35
2023-03-05T06:13:23.373Z,-1.35
2023-03-05T06:13:53.683Z,-1.35
2023-03-05T06:14:25.574Z,-1.35
2023-03-05T06:14:55.831Z,-1.50
2023-03-05T06:15:30.045Z,-1.50
2023-03-05T06:15:58.779Z,-1.50
2023-03-05T06:16:29.503Z,-1.25
2023-03-05T06:17:00.412Z,-1.25
2023-03-05T06:17:31.388Z,-1.25
2023-03-05T06:18:01.672Z,-1.25
2023-03-05T06:18:33.371Z,-1.25
2023-03-05T06:19:04.396Z,-1.25
2023-03-05T06:19:36.232Z,-1.25
2023-03-05T06:20:06.278Z,-1.25
2023-03-05T06:20:39.464Z,-1.25
2023-03-05T06:21:08.739Z,-1.25
2023-03-05T06:21:39.409Z,-1.25
2023-03-05T06:22:09.773Z,-1.25
2023-03-05T06:22:41.532Z,-1.25
2023-03-05T06:23:12.183Z,-1.25
2023-03-05T06:23:43.840Z,-1.25
2023-03-05T06:24:13.735Z,-1.25
2023-03-05T06:24:45.491Z,-1.39
2023-03-05T06:25:16.172Z,-1.39
2023-03-05T06:25:47.486Z,-1.39
2023-03-05T06:26:19.216Z,-1.39
2023-03-05T06:26:49.408Z,-1.39
2023-03-05T06:27:19.726Z,-1.39
2023-03-05T06:27:51.444Z,-1.39
2023-03-05T06:28:21.717Z,-1.34
2023-03-05T06:28:53.470Z,-1.34
2023-03-05T06:29:23.727Z,-1.34
2023-03-05T06:29:55.554Z,-1.34
2023-03-05T06:30:27.317Z,-1.34
2023-03-05T06:30:58.403Z,-1.34
2023-03-05T06:31:28.715Z,-1.34
2023-03-05T06:31:59.476Z,-1.34
2023-03-05T06:32:29.777Z,-1.34
2023-03-05T06:33:01.624Z,-1.34
2023-03-05T06:33:31.786Z,-1.34
2023-03-05T06:34:03.565Z,-1.34
2023-03-05T06:34:33.854Z,-1.34
2023-03-05T06:35:06.654Z,-1.34
2023-03-05T06:35:36.240Z,-1.34
2023-03-05T06:36:07.428Z,-1.34
2023-03-05T06:36:38.704Z,-1.34
2023-03-05T06:37:09.742Z,-1.34
2023-03-05T06:37:39.801Z,-1.34
2023-03-05T06:38:11.518Z,-1.34
2023-03-05T06:38:41.711Z,-1.34
2023-03-05T06:39:13.428Z,-1.34